Terminal Aerodrome Forecast
Issued by NWS North Platte, NE

Home | Current Version | Previous Version | Graphics & Text | Print | Product List | Glossary On
Versions: 1 2 3 4 5 6 7 8 9 10 11 12
000
FTUS43 KLBF 192300
TAFVTN
TAF
KVTN 192323Z 2000/2024 14012KT P6SM BKN250
     FM200600 14008KT P6SM BKN100 OVC200
     FM201900 20010KT P6SM SCT150=

USA.gov is the U.S. government's official web portal to all federal, state and local government web resources and services.